ADDS METAR Data INFO
IDs: Format: Raw Decoded Include TAF

Data at: 0941 UTC 25 Jun 2018

KHPN 250856Z 32011KT 10SM CLR 17/16 A2986 RMK AO2 SLP108 T01720156 53019
KHPN 250756Z 34015G22KT 10SM FEW031 18/16 A2983 RMK AO2 SLP098 T01780161
KHPN 250656Z COR 33015G19KT 10SM SCT006 OVC018 19/18 A2983 RMK AO2 CIG 005V009 SLP096 T01890178
KHPN 250622Z 31010KT 10SM BKN013 19/18 A2982 RMK AO2 T01940178
KHPN 250556Z 30008KT 10SM CLR 19/18 A2981 RMK AO2 SLP088 60013 T01940178 10239 20189 56004
KHPN 250456Z 29008KT 10SM CLR 19/18 A2982 RMK AO2 SLP091 T01940178 402720167
KHPN 250356Z 30004KT 10SM SCT120 20/18 A2981 RMK AO2 SLP089 T02000183
KHPN 250256Z 00000KT 10SM SCT110 20/19 A2982 RMK AO2 SLP094 60013 T02000189 51020
KHPN 250156Z 30005KT 10SM FEW050 SCT100 21/19 A2981 RMK AO2 RAE25 SLP091 P0000 T02060189
KHPN 250056Z 00000KT 9SM -RA FEW045 SCT070 BKN090 21/20 A2980 RMK AO2 LTG DSNT NE AND E RAB07 TSE18 SLP088 P0013 T02110200
KHPN 250038Z 36007KT 10SM R16/6000VP6000FT -RA FEW010 BKN070 OVC090 22/19 A2980 RMK AO2 LTG DSNT NE AND E AND W RAB07 TSE18 P0011 T02170194
KHPN 250024Z 35006G18KT 10SM VCTS RA FEW010 BKN070 OVC090 22/20 A2981 RMK AO2 LTG DSNT N-E RAB07 TSE18 P0006 T02170200
KHPN 242356Z 09005KT 10SM TS FEW010 SCT075 BKN090 24/21 A2976 RMK AO2 LTG DSNT W-NE TSB55 SLP073 60041 T02390211 10272 20222 58008
KHPN 242256Z 19003KT 10SM FEW015 SCT075 BKN100 24/21 A2978 RMK AO2 SLP078 T02440206
KHPN 242156Z 18008KT 10SM FEW050 25/21 A2978 RMK AO2 LTG DSNT NE SLP080 T02500211
KHPN 242056Z 17007KT 10SM FEW005 FEW050 SCT100 24/22 A2979 RMK AO2 LTG DSNT N SLP081 60041 T02440217 56006
KHPN 241956Z 15005KT 8SM FEW005 SCT055 SCT075 24/22 A2979 RMK AO2 LTG DSNT N RAE27 SLP082 P0038 T02390222
KHPN 241940Z 17004KT 9SM FEW003 SCT030 BKN050 23/22 A2979 RMK AO2 RAE27 P0038 T02330217
KHPN 241927Z 17006KT 3SM BR FEW030 SCT049 BKN060 22/21 A2980 RMK AO2 RAE27 P0038 T02220211
KHPN 241856Z 16008KT 1SM R16/5500VP6000FT RA FEW022 SCT047 BKN055 24/20 A2979 RMK AO2 RAB49 SLP082 P0003 T02440200
KHPN 241756Z 16007KT 10SM FEW028 SCT040 BKN055 27/19 A2980 RMK AO2 SLP088 T02670194 10272 20183 58012
KHPN 241656Z VRB04KT 10SM FEW026 BKN034 26/20 A2981 RMK AO2 SLP090 T02610200
KHPN 241556Z 17005KT 7SM SCT015 24/19 A2984 RMK AO2 SLP098 T02390194
KHPN 241456Z 15006KT 2SM HZ SCT009 BKN015 22/19 A2984 RMK AO2 SLP100 T02170189 58002
KHPN 241356Z 19004KT 1 1/2SM BR BKN005 OVC010 20/18 A2985 RMK AO2 SLP104 T02000183
KHPN 241256Z 00000KT 1 1/4SM BR VV003 19/18 A2984 RMK AO2 SLP101 T01890178
KHPN 241156Z 22004KT 3/4SM R16/4000V5500FT BR VV002 18/17 A2984 RMK AO2 SLP103 T01780172 10183 20167 53008
KHPN 241056Z VRB03KT 1SM R16/P6000FT BR VV003 17/17 A2984 RMK AO2 SLP101 T01720167
KHPN 240956Z 16003KT 2SM BR VV003 17/16 A2982 RMK AO2 SLP096 T01670161
KHPN 240856Z 16004KT 1SM R16/6000VP6000FT BR VV001 17/16 A2982 RMK AO2 SLP095 T01670161 55004
KHPN 240756Z 00000KT 2SM BR VV001 17/16 A2981 RMK AO2 SLP092 T01670161
KHPN 240656Z 16004KT 1/4SM R16/2000V4500FT FG VV001 17/17 A2981 RMK AO2 SLP094 T01670167
KHPN 240556Z 00000KT 1/4SM R16/2000V3000FT FG VV001 17/17 A2983 RMK AO2 SLP099 T01670167 10178 20167 58002
KHPN 240507Z 00000KT 1/4SM R16/1600V2800FT FG VV001 17/17 A2984 RMK AO2 T01670167
KHPN 240456Z 00000KT 1/4SM R16/1400V1800FT FG VV001 17/17 A2983 RMK AO2 SLP100 T01670167 401830150
KHPN 240356Z 16004KT 1/4SM R16/1200V1600FT FG VV001 17/17 A2984 RMK AO2 SLP102 T01670167
KHPN 240334Z 12004KT 1/4SM R16/1400V2000FT FG VV001 17/17 A2983 RMK AO2 T01670167
KHPN 240256Z 00000KT 1/4SM R16/4000VP6000FT FG VV002 17/17 A2984 RMK AO2 SLP101 T01670167 50003
KHPN 240217Z 11003KT 3/4SM R16/P6000FT BR VV003 17/16 A2984 RMK AO2 T01720161
KHPN 240156Z 13003KT 5SM BR BKN003 OVC006 17/16 A2985 RMK AO2 CIG 002V006 SLP105 T01720161
KHPN 240056Z 09003KT 10SM BKN006 OVC012 17/16 A2984 RMK AO2 SLP102 T01720161
KHPN 232356Z 00000KT 10SM OVC007 18/16 A2983 RMK AO2 SLP099 60000 T01780161 10183 20172 51004
KHPN 232256Z 00000KT 10SM OVC008 18/16 A2982 RMK AO2 RAE51 SLP097 P0000 T01780161
KHPN 232156Z VRB03KT 10SM -RA BKN009 18/16 A2983 RMK AO2 SLP097 P0000 T01780156